N'Djamena International Airport

FTTJ · N’Djaména, 乍得

METAR FTTJ · N'Djamena International Airport

23 二月 21:00 LT
36m
罗盘
风向 的 风向 040° N'Djamena International Airport 5/23
风: 8 kt, 3 beaufort

8 kt

1 kt
改变
0 ft 1.000 2.000 3.000 4.000 5.000
没有观察到明显的云
METAR FTTJ 232000Z 04008KT 6000 NSC 29/07 Q1013 NOSIG

METAR N'Djamena International Airport - FTTJ/NDJ

N'Djamena International Airport是,乍得中的大型机场。 该机场位于纬度12,13370和经度15,03400。 该机场有一条跑道: 5/23. 本场的ICAO机场代码为FTTJ。 该机场的IATA代码为NDJ。 机场在N Djamena FIR中。

该航空气象观测是针对N'Djamena International Airport在2024年2月23日 21:00, 当地时间进行的。

机场观察

风向为040°,速度为8 kt。

可见度为6 km。

有没有观察到明显的云。 没有观察到天花板。

温度和风寒是29 °C。 露点为7 °C,相对湿度为25%。 海平面上的气压为1013 hPa (QNH)。

白天

今天,太阳从06:18升起,在18:08降落。 这适用于N'Djamena International Airport,世界夏令时可能有所不同。 当地时间与世界标准时间之间的时差为+1 小时。 当前,没有夏令时有效。

公司介绍

我们没有关于这个机场的公司信息。

体会

到Vliegles.nl去找飞行课程,跳伞和其他飞行体验。 浏览页面,了解N'Djamena International Airport附近所有可用的活动。 你也可以使用搜索功能来寻找你所在地附近的特定飞行课程、跳伞或其他飞行体验。

跑道

Id 标题 侧风 逆风 侧风 %
5/23 045°-225° 8 kt 9 %

逆风成分最大的方向会被突出显示,并用于横风计算。 这并不一定意味着这个方向在使用。

乌云

- NSC 没有观察到明显的云

温度 & 天气

温度 29 °C
露点 7 °C
相对湿度 25%
Kp-index 0 (0-9)

白天

日出
06:18 (8:42)
中午
12:13
日落
18:08

小工具

你想在你的网站上有一个关于N'Djamena International Airport的当前航空天气(METAR)的小部件吗?

显示HTML代码
?>